sensor_id;sensor_type;location;lat;lon;timestamp;temperature;humidity
76291;DHT22;65100;46.884;17.410;2023-09-30T00:01:36;12.09;83.20
76291;DHT22;65100;46.884;17.410;2023-09-30T00:04:02;12.14;83.14
76291;DHT22;65100;46.884;17.410;2023-09-30T00:06:28;12.06;82.80
76291;DHT22;65100;46.884;17.410;2023-09-30T00:08:54;11.94;83.60
76291;DHT22;65100;46.884;17.410;2023-09-30T00:11:19;11.65;84.31
76291;DHT22;65100;46.884;17.410;2023-09-30T00:13:45;11.55;85.01
76291;DHT22;65100;46.884;17.410;2023-09-30T00:16:11;11.75;84.89
76291;DHT22;65100;46.884;17.410;2023-09-30T00:18:36;11.83;84.26
76291;DHT22;65100;46.884;17.410;2023-09-30T00:21:02;11.76;84.72
76291;DHT22;65100;46.884;17.410;2023-09-30T00:23:28;11.93;83.72
76291;DHT22;65100;46.884;17.410;2023-09-30T00:25:54;12.02;83.31
76291;DHT22;65100;46.884;17.410;2023-09-30T00:28:19;11.96;82.69
76291;DHT22;65100;46.884;17.410;2023-09-30T00:30:44;11.92;82.40
76291;DHT22;65100;46.884;17.410;2023-09-30T00:33:13;11.83;82.52
76291;DHT22;65100;46.884;17.410;2023-09-30T00:35:38;11.68;83.00
76291;DHT22;65100;46.884;17.410;2023-09-30T00:38:04;11.56;83.73
76291;DHT22;65100;46.884;17.410;2023-09-30T00:40:29;11.58;83.63
76291;DHT22;65100;46.884;17.410;2023-09-30T00:42:55;11.56;83.26
76291;DHT22;65100;46.884;17.410;2023-09-30T00:45:21;11.61;82.96
76291;DHT22;65100;46.884;17.410;2023-09-30T00:47:46;11.69;82.83
76291;DHT22;65100;46.884;17.410;2023-09-30T00:50:12;11.72;82.74
76291;DHT22;65100;46.884;17.410;2023-09-30T00:52:38;11.55;82.34
76291;DHT22;65100;46.884;17.410;2023-09-30T00:55:05;11.42;82.79
76291;DHT22;65100;46.884;17.410;2023-09-30T00:57:32;11.36;83.00
76291;DHT22;65100;46.884;17.410;2023-09-30T00:59:58;11.39;83.14
76291;DHT22;65100;46.884;17.410;2023-09-30T01:02:25;11.46;83.68
76291;DHT22;65100;46.884;17.410;2023-09-30T01:04:51;11.78;82.85
76291;DHT22;65100;46.884;17.410;2023-09-30T01:07:16;11.73;82.42
76291;DHT22;65100;46.884;17.410;2023-09-30T01:09:42;11.52;83.32
76291;DHT22;65100;46.884;17.410;2023-09-30T01:12:08;11.39;83.97
76291;DHT22;65100;46.884;17.410;2023-09-30T01:14:34;11.43;83.97
76291;DHT22;65100;46.884;17.410;2023-09-30T01:17:01;11.49;83.67
76291;DHT22;65100;46.884;17.410;2023-09-30T01:19:27;11.56;83.19
76291;DHT22;65100;46.884;17.410;2023-09-30T01:21:56;11.39;83.17
76291;DHT22;65100;46.884;17.410;2023-09-30T01:24:29;11.11;84.69
76291;DHT22;65100;46.884;17.410;2023-09-30T01:26:56;10.88;86.64
76291;DHT22;65100;46.884;17.410;2023-09-30T01:29:21;10.84;87.28
76291;DHT22;65100;46.884;17.410;2023-09-30T01:31:48;11.26;85.19
76291;DHT22;65100;46.884;17.410;2023-09-30T01:34:15;11.40;84.16
76291;DHT22;65100;46.884;17.410;2023-09-30T01:36:42;11.63;83.10
76291;DHT22;65100;46.884;17.410;2023-09-30T01:39:11;11.72;81.58
76291;DHT22;65100;46.884;17.410;2023-09-30T01:41:37;11.73;81.72
76291;DHT22;65100;46.884;17.410;2023-09-30T01:44:04;11.63;81.64
76291;DHT22;65100;46.884;17.410;2023-09-30T01:46:29;11.46;82.73
76291;DHT22;65100;46.884;17.410;2023-09-30T01:48:55;11.29;83.53
76291;DHT22;65100;46.884;17.410;2023-09-30T01:51:20;11.24;83.19
76291;DHT22;65100;46.884;17.410;2023-09-30T01:53:47;10.78;85.21
76291;DHT22;65100;46.884;17.410;2023-09-30T01:56:13;11.11;84.84
76291;DHT22;65100;46.884;17.410;2023-09-30T01:58:38;11.32;84.34
76291;DHT22;65100;46.884;17.410;2023-09-30T02:01:04;11.40;84.38
76291;DHT22;65100;46.884;17.410;2023-09-30T02:03:29;11.04;85.16
76291;DHT22;65100;46.884;17.410;2023-09-30T02:05:56;11.14;85.73
76291;DHT22;65100;46.884;17.410;2023-09-30T02:08:22;11.18;85.71
76291;DHT22;65100;46.884;17.410;2023-09-30T02:10:48;11.32;84.86
76291;DHT22;65100;46.884;17.410;2023-09-30T02:13:13;11.29;84.18
76291;DHT22;65100;46.884;17.410;2023-09-30T02:15:42;11.19;84.44
76291;DHT22;65100;46.884;17.410;2023-09-30T02:18:07;11.11;84.88
76291;DHT22;65100;46.884;17.410;2023-09-30T02:20:34;11.29;83.62
76291;DHT22;65100;46.884;17.410;2023-09-30T02:23:00;11.10;84.58
76291;DHT22;65100;46.884;17.410;2023-09-30T02:25:27;11.12;84.27
76291;DHT22;65100;46.884;17.410;2023-09-30T02:27:53;11.35;82.73
76291;DHT22;65100;46.884;17.410;2023-09-30T02:30:19;11.42;82.29
76291;DHT22;65100;46.884;17.410;2023-09-30T02:32:46;11.26;82.29
76291;DHT22;65100;46.884;17.410;2023-09-30T02:35:12;11.18;83.32
76291;DHT22;65100;46.884;17.410;2023-09-30T02:37:38;11.21;83.21
76291;DHT22;65100;46.884;17.410;2023-09-30T02:40:07;11.07;84.04
76291;DHT22;65100;46.884;17.410;2023-09-30T02:42:38;10.88;85.02
76291;DHT22;65100;46.884;17.410;2023-09-30T02:45:05;10.98;84.86
76291;DHT22;65100;46.884;17.410;2023-09-30T02:47:31;11.10;84.74
76291;DHT22;65100;46.884;17.410;2023-09-30T02:49:57;11.38;84.08
76291;DHT22;65100;46.884;17.410;2023-09-30T02:52:23;11.32;82.68
76291;DHT22;65100;46.884;17.410;2023-09-30T02:54:49;11.21;82.79
76291;DHT22;65100;46.884;17.410;2023-09-30T02:57:15;11.04;83.53
76291;DHT22;65100;46.884;17.410;2023-09-30T02:59:41;10.97;83.97
76291;DHT22;65100;46.884;17.410;2023-09-30T03:02:06;10.63;85.13
76291;DHT22;65100;46.884;17.410;2023-09-30T03:04:32;10.60;85.67
76291;DHT22;65100;46.884;17.410;2023-09-30T03:06:57;10.38;86.42
76291;DHT22;65100;46.884;17.410;2023-09-30T03:09:23;10.30;87.54
76291;DHT22;65100;46.884;17.410;2023-09-30T03:11:48;10.68;86.31
76291;DHT22;65100;46.884;17.410;2023-09-30T03:14:15;11.07;85.31
76291;DHT22;65100;46.884;17.410;2023-09-30T03:16:40;11.15;83.53
76291;DHT22;65100;46.884;17.410;2023-09-30T03:19:07;11.35;82.73
76291;DHT22;65100;46.884;17.410;2023-09-30T03:21:34;11.26;83.13
76291;DHT22;65100;46.884;17.410;2023-09-30T03:24:03;11.15;82.24
76291;DHT22;65100;46.884;17.410;2023-09-30T03:26:29;10.87;83.83
76291;DHT22;65100;46.884;17.410;2023-09-30T03:28:55;10.88;83.88
76291;DHT22;65100;46.884;17.410;2023-09-30T03:31:21;10.67;84.81
76291;DHT22;65100;46.884;17.410;2023-09-30T03:33:48;10.75;84.99
76291;DHT22;65100;46.884;17.410;2023-09-30T03:36:13;10.90;84.97
76291;DHT22;65100;46.884;17.410;2023-09-30T03:38:40;11.04;84.21
76291;DHT22;65100;46.884;17.410;2023-09-30T03:41:07;11.07;83.72
76291;DHT22;65100;46.884;17.410;2023-09-30T03:43:34;10.91;84.48
76291;DHT22;65100;46.884;17.410;2023-09-30T03:46:06;10.81;84.44
76291;DHT22;65100;46.884;17.410;2023-09-30T03:48:31;10.94;84.52
76291;DHT22;65100;46.884;17.410;2023-09-30T03:50:57;11.01;84.34
76291;DHT22;65100;46.884;17.410;2023-09-30T03:53:22;10.97;84.63
76291;DHT22;65100;46.884;17.410;2023-09-30T03:55:51;11.16;83.64
76291;DHT22;65100;46.884;17.410;2023-09-30T03:58:16;11.10;83.36
76291;DHT22;65100;46.884;17.410;2023-09-30T04:00:44;10.87;84.33
76291;DHT22;65100;46.884;17.410;2023-09-30T04:03:09;10.92;85.10
76291;DHT22;65100;46.884;17.410;2023-09-30T04:05:35;11.07;83.96
76291;DHT22;65100;46.884;17.410;2023-09-30T04:08:02;11.21;83.50
76291;DHT22;65100;46.884;17.410;2023-09-30T04:10:28;10.91;83.90
76291;DHT22;65100;46.884;17.410;2023-09-30T04:12:55;11.00;83.82
76291;DHT22;65100;46.884;17.410;2023-09-30T04:15:21;10.87;84.70
76291;DHT22;65100;46.884;17.410;2023-09-30T04:17:48;10.54;86.66
76291;DHT22;65100;46.884;17.410;2023-09-30T04:20:14;10.72;86.43
76291;DHT22;65100;46.884;17.410;2023-09-30T04:22:45;10.72;86.97
76291;DHT22;65100;46.884;17.410;2023-09-30T04:25:15;10.97;86.32
76291;DHT22;65100;46.884;17.410;2023-09-30T04:27:42;11.07;85.66
76291;DHT22;65100;46.884;17.410;2023-09-30T04:30:08;11.28;84.69
76291;DHT22;65100;46.884;17.410;2023-09-30T04:32:37;11.25;84.76
76291;DHT22;65100;46.884;17.410;2023-09-30T04:35:04;11.25;84.46
76291;DHT22;65100;46.884;17.410;2023-09-30T04:37:30;11.12;84.95
76291;DHT22;65100;46.884;17.410;2023-09-30T04:39:55;10.94;85.87
76291;DHT22;65100;46.884;17.410;2023-09-30T04:42:21;11.21;85.22
76291;DHT22;65100;46.884;17.410;2023-09-30T04:44:46;11.28;84.39
76291;DHT22;65100;46.884;17.410;2023-09-30T04:47:12;11.52;83.95
76291;DHT22;65100;46.884;17.410;2023-09-30T04:49:37;11.61;83.21
76291;DHT22;65100;46.884;17.410;2023-09-30T04:52:02;11.76;83.37
76291;DHT22;65100;46.884;17.410;2023-09-30T04:54:30;11.70;83.33
76291;DHT22;65100;46.884;17.410;2023-09-30T04:56:55;11.73;83.45
76291;DHT22;65100;46.884;17.410;2023-09-30T04:59:21;11.56;84.27
76291;DHT22;65100;46.884;17.410;2023-09-30T05:01:50;11.65;84.00
76291;DHT22;65100;46.884;17.410;2023-09-30T05:04:15;11.85;83.73
76291;DHT22;65100;46.884;17.410;2023-09-30T05:06:41;11.75;84.80
76291;DHT22;65100;46.884;17.410;2023-09-30T05:09:06;11.63;85.25
76291;DHT22;65100;46.884;17.410;2023-09-30T05:11:32;12.26;84.35
76291;DHT22;65100;46.884;17.410;2023-09-30T05:13:58;12.24;84.47
76291;DHT22;65100;46.884;17.410;2023-09-30T05:16:24;12.46;84.72
76291;DHT22;65100;46.884;17.410;2023-09-30T05:18:52;13.12;82.95
76291;DHT22;65100;46.884;17.410;2023-09-30T05:21:17;14.36;79.17
76291;DHT22;65100;46.884;17.410;2023-09-30T05:23:43;14.50;77.61
76291;DHT22;65100;46.884;17.410;2023-09-30T05:26:09;14.08;79.48
76291;DHT22;65100;46.884;17.410;2023-09-30T05:28:34;13.82;80.51
76291;DHT22;65100;46.884;17.410;2023-09-30T05:31:00;13.73;80.93
76291;DHT22;65100;46.884;17.410;2023-09-30T05:33:26;13.61;81.59
76291;DHT22;65100;46.884;17.410;2023-09-30T05:35:53;13.89;80.99
76291;DHT22;65100;46.884;17.410;2023-09-30T05:38:20;13.76;80.79
76291;DHT22;65100;46.884;17.410;2023-09-30T05:40:45;13.58;81.70
76291;DHT22;65100;46.884;17.410;2023-09-30T05:43:11;13.38;82.97
76291;DHT22;65100;46.884;17.410;2023-09-30T05:45:39;13.16;84.28
76291;DHT22;65100;46.884;17.410;2023-09-30T05:48:14;12.90;85.92
76291;DHT22;65100;46.884;17.410;2023-09-30T05:50:41;12.97;85.64
76291;DHT22;65100;46.884;17.410;2023-09-30T05:53:08;13.00;86.17
76291;DHT22;65100;46.884;17.410;2023-09-30T05:55:35;13.18;85.36
76291;DHT22;65100;46.884;17.410;2023-09-30T05:58:01;13.12;85.93
76291;DHT22;65100;46.884;17.410;2023-09-30T06:00:27;13.41;85.09
76291;DHT22;65100;46.884;17.410;2023-09-30T06:02:56;13.46;84.71
76291;DHT22;65100;46.884;17.410;2023-09-30T06:05:22;13.51;84.88
76291;DHT22;65100;46.884;17.410;2023-09-30T06:07:50;13.52;84.72
76291;DHT22;65100;46.884;17.410;2023-09-30T06:10:16;13.62;84.51
76291;DHT22;65100;46.884;17.410;2023-09-30T06:12:47;13.39;85.98
76291;DHT22;65100;46.884;17.410;2023-09-30T06:15:16;13.32;86.60
76291;DHT22;65100;46.884;17.410;2023-09-30T06:17:47;13.85;84.91
76291;DHT22;65100;46.884;17.410;2023-09-30T06:20:13;14.21;84.15
76291;DHT22;65100;46.884;17.410;2023-09-30T06:22:43;14.03;83.26
76291;DHT22;65100;46.884;17.410;2023-09-30T06:25:15;13.91;84.50
76291;DHT22;65100;46.884;17.410;2023-09-30T06:27:42;13.89;84.87
76291;DHT22;65100;46.884;17.410;2023-09-30T06:30:09;14.03;84.80
76291;DHT22;65100;46.884;17.410;2023-09-30T06:32:34;14.70;83.57
76291;DHT22;65100;46.884;17.410;2023-09-30T06:35:02;15.02;83.01
76291;DHT22;65100;46.884;17.410;2023-09-30T06:37:28;15.65;81.99
76291;DHT22;65100;46.884;17.410;2023-09-30T06:39:55;15.90;81.82
76291;DHT22;65100;46.884;17.410;2023-09-30T06:42:21;16.20;81.54
76291;DHT22;65100;46.884;17.410;2023-09-30T06:44:46;16.12;82.80
76291;DHT22;65100;46.884;17.410;2023-09-30T06:47:15;16.41;82.37
76291;DHT22;65100;46.884;17.410;2023-09-30T06:49:41;16.43;82.49
76291;DHT22;65100;46.884;17.410;2023-09-30T06:52:06;16.57;82.17
76291;DHT22;65100;46.884;17.410;2023-09-30T06:54:32;16.61;81.76
76291;DHT22;65100;46.884;17.410;2023-09-30T06:56:58;17.00;80.83
76291;DHT22;65100;46.884;17.410;2023-09-30T06:59:24;17.04;80.87
76291;DHT22;65100;46.884;17.410;2023-09-30T07:01:50;16.98;80.59
76291;DHT22;65100;46.884;17.410;2023-09-30T07:04:16;17.24;80.62
76291;DHT22;65100;46.884;17.410;2023-09-30T07:06:41;18.14;79.19
76291;DHT22;65100;46.884;17.410;2023-09-30T07:09:07;18.39;77.66
76291;DHT22;65100;46.884;17.410;2023-09-30T07:11:32;18.36;77.67
76291;DHT22;65100;46.884;17.410;2023-09-30T07:13:58;18.34;76.49
76291;DHT22;65100;46.884;17.410;2023-09-30T07:16:23;18.26;77.57
76291;DHT22;65100;46.884;17.410;2023-09-30T07:18:49;18.36;76.76
76291;DHT22;65100;46.884;17.410;2023-09-30T07:21:15;18.09;78.47
76291;DHT22;65100;46.884;17.410;2023-09-30T07:23:41;17.97;78.55
76291;DHT22;65100;46.884;17.410;2023-09-30T07:26:27;18.03;78.68
76291;DHT22;65100;46.884;17.410;2023-09-30T07:29:13;17.82;79.74
76291;DHT22;65100;46.884;17.410;2023-09-30T07:31:39;17.95;78.03
76291;DHT22;65100;46.884;17.410;2023-09-30T07:34:04;17.71;79.51
76291;DHT22;65100;46.884;17.410;2023-09-30T07:36:30;17.66;80.09
76291;DHT22;65100;46.884;17.410;2023-09-30T07:38:55;17.71;79.80
76291;DHT22;65100;46.884;17.410;2023-09-30T07:41:21;17.73;80.55
76291;DHT22;65100;46.884;17.410;2023-09-30T07:43:46;17.76;80.43
76291;DHT22;65100;46.884;17.410;2023-09-30T07:46:11;17.83;79.82
76291;DHT22;65100;46.884;17.410;2023-09-30T07:48:37;17.95;79.30
76291;DHT22;65100;46.884;17.410;2023-09-30T07:51:04;18.13;79.14
76291;DHT22;65100;46.884;17.410;2023-09-30T07:53:31;18.23;78.94
76291;DHT22;65100;46.884;17.410;2023-09-30T07:55:57;18.41;78.81
76291;DHT22;65100;46.884;17.410;2023-09-30T07:58:22;18.47;78.48
76291;DHT22;65100;46.884;17.410;2023-09-30T08:00:48;18.59;78.20
76291;DHT22;65100;46.884;17.410;2023-09-30T08:03:13;18.73;78.18
76291;DHT22;65100;46.884;17.410;2023-09-30T08:05:39;18.81;77.75
76291;DHT22;65100;46.884;17.410;2023-09-30T08:08:04;18.87;77.37
76291;DHT22;65100;46.884;17.410;2023-09-30T08:10:31;18.97;78.06
76291;DHT22;65100;46.884;17.410;2023-09-30T08:12:58;18.94;77.66
76291;DHT22;65100;46.884;17.410;2023-09-30T08:15:27;18.85;78.04
76291;DHT22;65100;46.884;17.410;2023-09-30T08:17:52;18.91;78.14
76291;DHT22;65100;46.884;17.410;2023-09-30T08:20:18;18.91;78.23
76291;DHT22;65100;46.884;17.410;2023-09-30T08:22:47;18.94;78.07
76291;DHT22;65100;46.884;17.410;2023-09-30T08:25:13;18.93;78.08
76291;DHT22;65100;46.884;17.410;2023-09-30T08:27:39;18.97;78.03
76291;DHT22;65100;46.884;17.410;2023-09-30T08:30:05;19.01;77.29
76291;DHT22;65100;46.884;17.410;2023-09-30T08:32:37;18.83;77.95
76291;DHT22;65100;46.884;17.410;2023-09-30T08:35:03;19.04;76.43
76291;DHT22;65100;46.884;17.410;2023-09-30T08:37:29;19.15;76.55
76291;DHT22;65100;46.884;17.410;2023-09-30T08:39:55;19.52;75.85
76291;DHT22;65100;46.884;17.410;2023-09-30T08:42:22;19.79;74.63
76291;DHT22;65100;46.884;17.410;2023-09-30T08:44:47;20.13;73.81
76291;DHT22;65100;46.884;17.410;2023-09-30T08:47:14;20.40;73.08
76291;DHT22;65100;46.884;17.410;2023-09-30T08:49:41;20.69;72.81
76291;DHT22;65100;46.884;17.410;2023-09-30T08:52:10;21.04;72.92
76291;DHT22;65100;46.884;17.410;2023-09-30T08:54:39;21.27;70.26
76291;DHT22;65100;46.884;17.410;2023-09-30T08:57:04;21.39;70.34
76291;DHT22;65100;46.884;17.410;2023-09-30T08:59:31;21.30;69.61
76291;DHT22;65100;46.884;17.410;2023-09-30T09:01:57;21.23;69.47
76291;DHT22;65100;46.884;17.410;2023-09-30T09:04:24;21.21;70.31
76291;DHT22;65100;46.884;17.410;2023-09-30T09:06:50;21.20;70.84
76291;DHT22;65100;46.884;17.410;2023-09-30T09:09:19;21.32;69.80
76291;DHT22;65100;46.884;17.410;2023-09-30T09:11:47;21.39;69.25
76291;DHT22;65100;46.884;17.410;2023-09-30T09:14:13;21.69;67.30
76291;DHT22;65100;46.884;17.410;2023-09-30T09:16:53;22.40;66.27
76291;DHT22;65100;46.884;17.410;2023-09-30T09:19:19;23.14;63.55
76291;DHT22;65100;46.884;17.410;2023-09-30T09:21:57;23.24;63.55
76291;DHT22;65100;46.884;17.410;2023-09-30T09:27:11;22.88;63.27
76291;DHT22;65100;46.884;17.410;2023-09-30T09:29:38;22.57;64.44
76291;DHT22;65100;46.884;17.410;2023-09-30T09:34:38;22.71;65.45
76291;DHT22;65100;46.884;17.410;2023-09-30T09:37:17;22.73;65.14
76291;DHT22;65100;46.884;17.410;2023-09-30T09:39:56;22.80;64.64
76291;DHT22;65100;46.884;17.410;2023-09-30T09:42:27;22.93;64.52
76291;DHT22;65100;46.884;17.410;2023-09-30T09:44:59;22.97;65.07
76291;DHT22;65100;46.884;17.410;2023-09-30T09:47:28;22.91;64.04
76291;DHT22;65100;46.884;17.410;2023-09-30T09:49:57;22.81;63.68
76291;DHT22;65100;46.884;17.410;2023-09-30T09:52:23;22.68;63.76
76291;DHT22;65100;46.884;17.410;2023-09-30T09:54:50;22.59;63.99
76291;DHT22;65100;46.884;17.410;2023-09-30T09:57:16;22.52;64.27
76291;DHT22;65100;46.884;17.410;2023-09-30T09:59:43;22.56;64.41
76291;DHT22;65100;46.884;17.410;2023-09-30T10:02:14;22.54;64.60
76291;DHT22;65100;46.884;17.410;2023-09-30T10:04:44;22.50;64.39
76291;DHT22;65100;46.884;17.410;2023-09-30T10:07:26;22.53;64.90
76291;DHT22;65100;46.884;17.410;2023-09-30T10:09:57;22.64;64.92
76291;DHT22;65100;46.884;17.410;2023-09-30T10:12:25;22.63;64.22
76291;DHT22;65100;46.884;17.410;2023-09-30T10:14:52;22.63;65.04
76291;DHT22;65100;46.884;17.410;2023-09-30T10:17:18;22.60;63.63
76291;DHT22;65100;46.884;17.410;2023-09-30T10:20:04;22.47;63.54
76291;DHT22;65100;46.884;17.410;2023-09-30T10:22:32;22.37;64.10
76291;DHT22;65100;46.884;17.410;2023-09-30T10:24:59;22.40;64.23
76291;DHT22;65100;46.884;17.410;2023-09-30T10:29:57;22.44;64.17
76291;DHT22;65100;46.884;17.410;2023-09-30T10:32:23;22.49;62.56
76291;DHT22;65100;46.884;17.410;2023-09-30T10:35:08;22.52;63.58
76291;DHT22;65100;46.884;17.410;2023-09-30T10:37:34;22.66;62.14
76291;DHT22;65100;46.884;17.410;2023-09-30T10:39:59;22.90;62.34
76291;DHT22;65100;46.884;17.410;2023-09-30T10:42:49;23.21;62.57
76291;DHT22;65100;46.884;17.410;2023-09-30T10:50:51;23.71;60.12
76291;DHT22;65100;46.884;17.410;2023-09-30T10:53:20;23.54;59.52
76291;DHT22;65100;46.884;17.410;2023-09-30T10:55:59;23.47;60.85
76291;DHT22;65100;46.884;17.410;2023-09-30T10:58:44;23.42;60.19
76291;DHT22;65100;46.884;17.410;2023-09-30T11:01:11;23.47;61.29
76291;DHT22;65100;46.884;17.410;2023-09-30T11:03:37;23.31;60.32
76291;DHT22;65100;46.884;17.410;2023-09-30T11:06:03;23.32;60.53
76291;DHT22;65100;46.884;17.410;2023-09-30T11:08:29;23.27;61.15
76291;DHT22;65100;46.884;17.410;2023-09-30T11:10:56;23.22;61.18
76291;DHT22;65100;46.884;17.410;2023-09-30T11:13:22;23.12;61.09
76291;DHT22;65100;46.884;17.410;2023-09-30T11:15:47;23.06;61.23
76291;DHT22;65100;46.884;17.410;2023-09-30T11:18:14;23.01;62.46
76291;DHT22;65100;46.884;17.410;2023-09-30T11:20:43;23.03;62.02
76291;DHT22;65100;46.884;17.410;2023-09-30T11:23:12;23.00;62.22
76291;DHT22;65100;46.884;17.410;2023-09-30T11:25:40;23.03;62.55
76291;DHT22;65100;46.884;17.410;2023-09-30T11:28:18;23.03;62.91
76291;DHT22;65100;46.884;17.410;2023-09-30T11:31:00;23.06;62.00
76291;DHT22;65100;46.884;17.410;2023-09-30T11:33:30;23.01;62.22
76291;DHT22;65100;46.884;17.410;2023-09-30T11:36:01;22.97;62.09
76291;DHT22;65100;46.884;17.410;2023-09-30T11:38:28;22.97;61.77
76291;DHT22;65100;46.884;17.410;2023-09-30T11:41:04;22.98;61.95
76291;DHT22;65100;46.884;17.410;2023-09-30T11:43:34;22.91;62.24
76291;DHT22;65100;46.884;17.410;2023-09-30T11:46:11;22.88;62.39
76291;DHT22;65100;46.884;17.410;2023-09-30T11:48:40;22.87;62.66
76291;DHT22;65100;46.884;17.410;2023-09-30T11:51:22;22.84;63.09
76291;DHT22;65100;46.884;17.410;2023-09-30T11:53:50;22.84;63.42
76291;DHT22;65100;46.884;17.410;2023-09-30T11:56:20;22.80;63.24
76291;DHT22;65100;46.884;17.410;2023-09-30T11:58:47;22.74;63.35
76291;DHT22;65100;46.884;17.410;2023-09-30T12:01:14;22.84;63.03
76291;DHT22;65100;46.884;17.410;2023-09-30T12:03:40;22.93;63.52
76291;DHT22;65100;46.884;17.410;2023-09-30T12:06:06;22.97;63.95
76291;DHT22;65100;46.884;17.410;2023-09-30T12:08:31;23.06;63.55
76291;DHT22;65100;46.884;17.410;2023-09-30T12:10:59;23.04;62.90
76291;DHT22;65100;46.884;17.410;2023-09-30T12:13:25;23.08;63.21
76291;DHT22;65100;46.884;17.410;2023-09-30T12:15:51;23.14;62.18
76291;DHT22;65100;46.884;17.410;2023-09-30T12:18:19;23.18;61.71
76291;DHT22;65100;46.884;17.410;2023-09-30T12:20:51;23.17;61.44
76291;DHT22;65100;46.884;17.410;2023-09-30T12:23:22;23.12;61.64
76291;DHT22;65100;46.884;17.410;2023-09-30T12:25:48;23.07;62.04
76291;DHT22;65100;46.884;17.410;2023-09-30T12:28:13;23.03;62.08
76291;DHT22;65100;46.884;17.410;2023-09-30T12:30:40;22.96;62.44
76291;DHT22;65100;46.884;17.410;2023-09-30T12:33:07;22.97;62.78
76291;DHT22;65100;46.884;17.410;2023-09-30T12:35:32;23.08;61.99
76291;DHT22;65100;46.884;17.410;2023-09-30T12:37:58;23.08;62.87
76291;DHT22;65100;46.884;17.410;2023-09-30T12:40:24;23.07;62.93
76291;DHT22;65100;46.884;17.410;2023-09-30T12:42:49;23.08;63.15
76291;DHT22;65100;46.884;17.410;2023-09-30T12:45:19;23.11;63.70
76291;DHT22;65100;46.884;17.410;2023-09-30T12:47:45;23.21;63.15
76291;DHT22;65100;46.884;17.410;2023-09-30T12:50:12;23.22;63.14
76291;DHT22;65100;46.884;17.410;2023-09-30T12:52:38;23.20;63.71
76291;DHT22;65100;46.884;17.410;2023-09-30T12:55:04;23.37;62.85
76291;DHT22;65100;46.884;17.410;2023-09-30T12:57:30;23.32;63.04
76291;DHT22;65100;46.884;17.410;2023-09-30T12:59:56;23.35;62.42
76291;DHT22;65100;46.884;17.410;2023-09-30T13:02:22;23.40;62.91
76291;DHT22;65100;46.884;17.410;2023-09-30T13:04:47;23.40;63.27
76291;DHT22;65100;46.884;17.410;2023-09-30T13:07:14;23.45;63.05
76291;DHT22;65100;46.884;17.410;2023-09-30T13:09:39;23.51;63.60
76291;DHT22;65100;46.884;17.410;2023-09-30T13:12:06;23.58;62.44
76291;DHT22;65100;46.884;17.410;2023-09-30T13:14:32;23.61;62.59
76291;DHT22;65100;46.884;17.410;2023-09-30T13:16:58;23.66;62.18
76291;DHT22;65100;46.884;17.410;2023-09-30T13:19:23;23.57;61.74
76291;DHT22;65100;46.884;17.410;2023-09-30T13:21:50;23.51;62.11
76291;DHT22;65100;46.884;17.410;2023-09-30T13:24:16;23.55;62.64
76291;DHT22;65100;46.884;17.410;2023-09-30T13:26:42;23.55;62.92
76291;DHT22;65100;46.884;17.410;2023-09-30T13:29:07;23.54;62.60
76291;DHT22;65100;46.884;17.410;2023-09-30T13:31:35;23.58;62.75
76291;DHT22;65100;46.884;17.410;2023-09-30T13:34:05;23.52;60.81
76291;DHT22;65100;46.884;17.410;2023-09-30T13:36:30;23.42;61.90
76291;DHT22;65100;46.884;17.410;2023-09-30T13:38:56;23.35;63.65
76291;DHT22;65100;46.884;17.410;2023-09-30T13:41:21;23.27;63.02
76291;DHT22;65100;46.884;17.410;2023-09-30T13:43:47;23.31;62.34
76291;DHT22;65100;46.884;17.410;2023-09-30T13:46:13;23.31;62.85
76291;DHT22;65100;46.884;17.410;2023-09-30T13:48:38;23.31;62.85
76291;DHT22;65100;46.884;17.410;2023-09-30T13:51:08;23.30;63.20
76291;DHT22;65100;46.884;17.410;2023-09-30T13:53:34;23.22;62.73
76291;DHT22;65100;46.884;17.410;2023-09-30T13:56:00;23.25;62.17
76291;DHT22;65100;46.884;17.410;2023-09-30T13:58:26;23.25;62.40
76291;DHT22;65100;46.884;17.410;2023-09-30T14:00:51;23.27;61.25
76291;DHT22;65100;46.884;17.410;2023-09-30T14:03:18;23.32;61.47
76291;DHT22;65100;46.884;17.410;2023-09-30T14:05:46;23.25;62.32
76291;DHT22;65100;46.884;17.410;2023-09-30T14:08:12;23.24;62.51
76291;DHT22;65100;46.884;17.410;2023-09-30T14:10:38;23.28;62.69
76291;DHT22;65100;46.884;17.410;2023-09-30T14:13:04;23.28;61.89
76291;DHT22;65100;46.884;17.410;2023-09-30T14:15:30;23.24;61.99
76291;DHT22;65100;46.884;17.410;2023-09-30T14:17:57;23.28;61.78
76291;DHT22;65100;46.884;17.410;2023-09-30T14:20:23;23.32;62.43
76291;DHT22;65100;46.884;17.410;2023-09-30T14:22:53;23.34;61.23
76291;DHT22;65100;46.884;17.410;2023-09-30T14:25:22;23.37;61.21
76291;DHT22;65100;46.884;17.410;2023-09-30T14:27:48;23.47;60.62
76291;DHT22;65100;46.884;17.410;2023-09-30T14:30:14;23.51;61.14
76291;DHT22;65100;46.884;17.410;2023-09-30T14:32:40;23.54;60.70
76291;DHT22;65100;46.884;17.410;2023-09-30T14:35:06;23.47;60.60
76291;DHT22;65100;46.884;17.410;2023-09-30T14:37:32;23.42;60.54
76291;DHT22;65100;46.884;17.410;2023-09-30T14:39:58;23.41;60.70
76291;DHT22;65100;46.884;17.410;2023-09-30T14:42:23;23.44;60.89
76291;DHT22;65100;46.884;17.410;2023-09-30T14:44:49;23.41;60.59
76291;DHT22;65100;46.884;17.410;2023-09-30T14:47:14;23.38;60.99
76291;DHT22;65100;46.884;17.410;2023-09-30T14:49:40;23.25;61.17
76291;DHT22;65100;46.884;17.410;2023-09-30T14:52:06;23.18;60.62
76291;DHT22;65100;46.884;17.410;2023-09-30T14:54:32;23.07;61.38
76291;DHT22;65100;46.884;17.410;2023-09-30T14:56:57;23.00;62.29
76291;DHT22;65100;46.884;17.410;2023-09-30T14:59:23;22.94;62.67
76291;DHT22;65100;46.884;17.410;2023-09-30T15:01:49;22.83;63.05
76291;DHT22;65100;46.884;17.410;2023-09-30T15:04:40;22.76;63.49
76291;DHT22;65100;46.884;17.410;2023-09-30T15:07:05;22.63;64.37
76291;DHT22;65100;46.884;17.410;2023-09-30T15:09:31;22.60;64.94
76291;DHT22;65100;46.884;17.410;2023-09-30T15:11:57;22.54;64.68
76291;DHT22;65100;46.884;17.410;2023-09-30T15:14:23;22.43;65.27
76291;DHT22;65100;46.884;17.410;2023-09-30T15:16:48;22.37;65.61
76291;DHT22;65100;46.884;17.410;2023-09-30T15:19:14;22.40;65.85
76291;DHT22;65100;46.884;17.410;2023-09-30T15:21:39;22.30;65.62
76291;DHT22;65100;46.884;17.410;2023-09-30T15:24:06;22.28;65.36
76291;DHT22;65100;46.884;17.410;2023-09-30T15:26:32;22.28;64.87
76291;DHT22;65100;46.884;17.410;2023-09-30T15:28:57;22.26;65.60